Grâce-Hollogne Agusta Heliport

EBAG · Liège, Wallonia, 比利时

METAR的历史 EBAG · Grâce-Hollogne Agusta Heliport

下面你可以看到过去几天的METARs。 选择年份以浏览从2007年开始的旧METAR。

2024年7月18日

时间 代码 天气 温度 能见度 天花板 METAR/SPECI
10:20
V
21 °C 10 km+ - Var Var 3 kt METAR EBLG 180820Z VRB03KT CAVOK 21/15 Q1023 NOSIG
09:50
V
21 °C 10 km+ - 130° 130° 3 kt METAR EBLG 180750Z 13003KT 080V170 CAVOK 21/15 Q1023 NOSIG
09:20
V
19 °C 10 km+ - 120° 120° 4 kt METAR EBLG 180720Z 12004KT 090V150 CAVOK 19/14 Q1023 NOSIG
08:50
V
19 °C 10 km+ - Var Var 3 kt METAR EBLG 180650Z VRB03KT CAVOK 19/14 Q1023 NOSIG
08:20
V
18 °C 10 km+ - 120° 120° 3 kt METAR EBLG 180620Z 12003KT CAVOK 18/14 Q1023 NOSIG
07:50
V
17 °C 10 km+ - 360° 360° 0 kt METAR EBLG 180550Z 00000KT CAVOK 17/13 Q1022 NOSIG
07:20
V
16 °C 10 km+ - 140° 140° 4 kt METAR EBLG 180520Z 14004KT 110V170 CAVOK 16/13 Q1022 NOSIG
06:50
V
16 °C 10 km+ - 130° 130° 5 kt METAR EBLG 180450Z 13005KT CAVOK 16/13 Q1022 NOSIG
06:20
V
16 °C 10 km+ - 120° 120° 6 kt METAR EBLG 180420Z 12006KT CAVOK 16/13 Q1022 NOSIG
05:50
V
16 °C 10 km+ - 120° 120° 7 kt METAR EBLG 180350Z 12007KT CAVOK 16/13 Q1022 NOSIG
05:20
V
16 °C 10 km+ - 130° 130° 6 kt METAR EBLG 180320Z 13006KT 080V230 CAVOK 16/13 Q1022 NOSIG
04:50
V
16 °C 10 km+ - 130° 130° 5 kt METAR EBLG 180250Z 13005KT CAVOK 16/14 Q1022 NOSIG
04:20
V
17 °C 10 km+ - 110° 110° 3 kt METAR EBLG 180220Z 11003KT CAVOK 17/13 Q1022 NOSIG
03:50
V
16 °C 10 km+ - 120° 120° 3 kt METAR EBLG 180150Z 12003KT 090V180 CAVOK 16/14 Q1022 NOSIG
03:20
V
17 °C 10 km+ - 130° 130° 4 kt METAR EBLG 180120Z 13004KT CAVOK 17/14 Q1022 NOSIG
02:50
V
17 °C 10 km+ - 100° 100° 4 kt METAR EBLG 180050Z 10004KT CAVOK 17/13 Q1022 NOSIG
02:20
V
17 °C 10 km+ - 110° 110° 4 kt METAR EBLG 180020Z 11004KT CAVOK 17/14 Q1022 NOSIG
01:50
V
18 °C 10 km+ - 090° 090° 5 kt METAR EBLG 172350Z 09005KT CAVOK 18/14 Q1023 NOSIG
01:20
V
18 °C 10 km+ - 060° 060° 7 kt METAR EBLG 172320Z 06007KT CAVOK 18/14 Q1023 NOSIG
00:50
V
18 °C 10 km+ - 060° 060° 7 kt METAR EBLG 172250Z 06007KT CAVOK 18/14 Q1023 NOSIG
00:20
V
18 °C 10 km+ - 040° 040° 6 kt METAR EBLG 172220Z 04006KT CAVOK 18/14 Q1023 NOSIG

2024年7月17日

时间 代码 天气 温度 能见度 天花板 METAR/SPECI
23:50
V
17 °C 10 km+ - 040° 040° 6 kt METAR EBLG 172150Z 04006KT CAVOK 17/14 Q1023 NOSIG
23:20
V
18 °C 10 km+ - 030° 030° 5 kt METAR EBLG 172120Z 03005KT CAVOK 18/14 Q1023 NOSIG
22:50
V
18 °C 10 km+ - 030° 030° 4 kt METAR EBLG 172050Z 03004KT CAVOK 18/14 Q1023 NOSIG
22:20
V
19 °C 10 km+ - 010° 010° 3 kt METAR EBLG 172020Z 01003KT CAVOK 19/14 Q1023 NOSIG
21:50
V
19 °C 10 km+ - 010° 010° 2 kt METAR EBLG 171950Z 01002KT CAVOK 19/14 Q1022 NOSIG
21:20
V
20 °C 10 km+ - 360° 360° 3 kt METAR EBLG 171920Z 36003KT CAVOK 20/14 Q1022 NOSIG
20:50
V
21 °C 10 km+ - 340° 340° 4 kt METAR EBLG 171850Z 34004KT CAVOK 21/14 Q1022 NOSIG
20:20
V
22 °C 10 km+ - 330° 330° 4 kt METAR EBLG 171820Z 33004KT 9999 FEW048 22/13 Q1022 NOSIG
19:50
V
23 °C 10 km+ - 330° 330° 5 kt METAR EBLG 171750Z 33005KT 300V360 9999 FEW048 23/13 Q1022 NOSIG
19:20
V
23 °C 10 km+ - 330° 330° 5 kt METAR EBLG 171720Z 33005KT 9999 FEW048 23/13 Q1022 NOSIG
18:50
V
24 °C 10 km+ - 300° 300° 4 kt METAR EBLG 171650Z 30004KT 260V350 9999 FEW044 24/14 Q1022 NOSIG
18:20
V
23 °C 10 km+ - 280° 280° 5 kt METAR EBLG 171620Z 28005KT 250V320 9999 FEW044 23/13 Q1022 NOSIG
17:50
V
23 °C 10 km+ - 280° 280° 6 kt METAR EBLG 171550Z 28006KT 240V340 9999 FEW044 23/14 Q1022 NOSIG
17:20
V
23 °C 10 km+ - 240° 240° 3 kt METAR EBLG 171520Z 24003KT 210V310 9999 FEW044 23/14 Q1022 NOSIG
16:50
V
24 °C 10 km+ - Var Var 4 kt METAR EBLG 171450Z VRB04KT 9999 FEW042 24/15 Q1022 NOSIG
16:20
V
22 °C 10 km+ - 310° 310° 3 kt METAR EBLG 171420Z 31003KT 260V040 9999 FEW032 22/14 Q1022 NOSIG
15:50
V
22 °C 10 km+ - 290° 290° 6 kt METAR EBLG 171350Z 29006KT 240V330 9999 SCT041 22/14 Q1021 NOSIG
15:20
V
23 °C 10 km+ - 230° 230° 6 kt METAR EBLG 171320Z 23006KT 190V290 9999 SCT040 23/14 Q1021 NOSIG
14:50
V
22 °C 10 km+ - Var Var 4 kt METAR EBLG 171250Z VRB04KT 9999 FEW040 22/14 Q1022 NOSIG
14:20
V
22 °C 10 km+ - 260° 260° 7 kt METAR EBLG 171220Z 26007KT 220V320 9999 FEW034 22/14 Q1022 NOSIG
13:50
V
23 °C 10 km+ - 240° 240° 9 kt METAR EBLG 171150Z 24009KT 9999 FEW031 23/16 Q1022 NOSIG
13:20
V
22 °C 10 km+ - 240° 240° 8 kt METAR EBLG 171120Z 24008KT 200V270 9999 FEW027 SCT040 22/15 Q1022 NOSIG
12:50
V
21 °C 10 km+ - 210° 210° 7 kt METAR EBLG 171050Z 21007KT 170V240 9999 SCT027 21/15 Q1022 NOSIG
12:20
V
20 °C 10 km+ - 220° 220° 7 kt METAR EBLG 171020Z 22007KT 200V260 9999 SCT023 20/14 Q1022 NOSIG
11:50
V
20 °C 10 km+ - 210° 210° 8 kt METAR EBLG 170950Z 21008KT 160V220 9999 SCT022 20/14 Q1022 NOSIG
11:20
V
19 °C 10 km+ - 220° 220° 7 kt METAR EBLG 170920Z 22007KT 190V260 9999 SCT018 19/14 Q1021 NOSIG
10:50
V
18 °C 10 km+ - 230° 230° 8 kt METAR EBLG 170850Z 23008KT 9999 FEW018 SCT022 18/15 Q1021 NOSIG
10:20
M
18 °C 10 km+ 1.600 ft 230° 230° 7 kt METAR EBLG 170820Z 23007KT 9999 FEW012 BKN016 18/14 Q1021 NOSIG
09:50
M
17 °C 10 km+ 1.200 ft 200° 200° 7 kt METAR EBLG 170750Z 20007KT 9999 FEW009 BKN012 17/15 Q1021 BECMG BKN015
09:20
I
16 °C 10 km+ 900 ft 210° 210° 7 kt METAR EBLG 170720Z 21007KT 9999 FEW008 BKN009 16/14 Q1021 BECMG BKN015
08:50
I
16 °C 10 km+ 700 ft 210° 210° 8 kt METAR EBLG 170650Z 21008KT 190V250 9999 FEW006 BKN007 16/14 Q1021 BECMG BKN015
08:20
I
16 °C 10 km+ 900 ft 230° 230° 8 kt METAR EBLG 170620Z 23008KT 9999 -DZRA SCT007 BKN009 16/14 Q1020 TEMPO SCT012
07:50
M
16 °C 10 km+ 1.200 ft 230° 230° 7 kt METAR EBLG 170550Z 23007KT 190V250 9999 SCT009 BKN012 16/14 Q1020 TEMPO SCT012
07:20
M
16 °C 10 km+ 1.200 ft 220° 220° 8 kt METAR EBLG 170520Z 22008KT 9999 BKN012 BKN016 16/14 Q1020 TEMPO SCT012
06:50
M
16 °C 10 km+ 1.100 ft 230° 230° 7 kt METAR EBLG 170450Z 23007KT 9999 BKN011 16/14 Q1019 TEMPO BKN008
06:20
M
16 °C 10 km+ 1.000 ft 240° 240° 8 kt METAR EBLG 170420Z 24008KT 9999 BKN010 16/13 Q1019 TEMPO BKN008
05:50
M
16 °C 10 km+ 1.100 ft 220° 220° 8 kt METAR EBLG 170350Z 22008KT 9999 BKN011 16/13 Q1019 TEMPO BKN008
05:20
M
16 °C 10 km+ 1.300 ft 230° 230° 9 kt METAR EBLG 170320Z 23009KT 9999 BKN013 16/13 Q1018 NOSIG
04:50
M
16 °C 10 km+ 1.400 ft 230° 230° 9 kt METAR EBLG 170250Z 23009KT 9999 BKN014 16/13 Q1018 NOSIG
04:20
M
16 °C 10 km+ 1.400 ft 220° 220° 9 kt METAR EBLG 170220Z 22009KT 9999 BKN014 16/13 Q1018 NOSIG
03:50
M
16 °C 10 km+ 1.400 ft 220° 220° 8 kt METAR EBLG 170150Z 22008KT 9999 BKN014 16/13 Q1018 NOSIG
03:20
M
15 °C 10 km+ 1.500 ft 220° 220° 9 kt METAR EBLG 170120Z 22009KT 9999 BKN015 15/13 Q1017 TEMPO BKN012
02:50
M
15 °C 10 km+ 1.600 ft 230° 230° 8 kt METAR EBLG 170050Z 23008KT 9999 BKN016 15/13 Q1017 TEMPO BKN012
02:20
M
15 °C 10 km+ 1.800 ft 230° 230° 9 kt METAR EBLG 170020Z 23009KT 9999 BKN018 15/13 Q1017 TEMPO BKN012
01:50
M
15 °C 10 km+ 1.800 ft 220° 220° 11 kt METAR EBLG 162350Z 22011KT 9999 BKN018 15/13 Q1017 NOSIG
01:20
V
16 °C 10 km+ - 230° 230° 9 kt METAR EBLG 162320Z 23009KT 9999 SCT020 16/13 Q1017 NOSIG
00:50
V
15 °C 10 km+ - 230° 230° 9 kt METAR EBLG 162250Z 23009KT 9999 SCT027 15/13 Q1017 NOSIG
00:20
M
16 °C 10 km+ 2.700 ft 230° 230° 11 kt METAR EBLG 162220Z 23011KT 9999 BKN027 16/13 Q1017 NOSIG

2024年7月16日

时间 代码 天气 温度 能见度 天花板 METAR/SPECI
23:50
M
16 °C 10 km+ 3.000 ft 240° 240° 12 kt METAR EBLG 162150Z 24012KT 9999 FEW024 BKN030 16/13 Q1016 NOSIG
23:20
V
16 °C 10 km+ 3.500 ft 230° 230° 12 kt METAR EBLG 162120Z 23012KT 9999 SCT024 BKN035 16/13 Q1016 NOSIG
22:50
V
17 °C 10 km+ 3.500 ft 230° 230° 12 kt METAR EBLG 162050Z 23012KT 9999 SCT024 BKN035 17/13 Q1016 NOSIG
22:20
V
17 °C 10 km+ - 220° 220° 12 kt METAR EBLG 162020Z 22012KT 9999 FEW031 17/14 Q1016 NOSIG
21:50
V
17 °C 10 km+ - 220° 220° 12 kt METAR EBLG 161950Z 22012KT 9999 FEW033 17/14 Q1016 NOSIG
21:20
V
17 °C 10 km+ - 230° 230° 13 kt METAR EBLG 161920Z 23013KT 9999 FEW020 17/13 Q1015 NOSIG
20:50
V
17 °C 10 km+ - 230° 230° 14 kt METAR EBLG 161850Z 23014KT 9999 FEW020 17/14 Q1015 NOSIG
20:20
V
17 °C 10 km+ - 230° 230° 13 kt METAR EBLG 161820Z 23013KT 9999 FEW020 17/14 Q1015 NOSIG
19:50
V
17 °C 10 km+ - 230° 230° 16 kt METAR EBLG 161750Z 23016KT 9999 FEW018TCU 17/14 Q1015 NOSIG
19:20
V
18 °C 10 km+ 4.200 ft 240° 240° 18 kt METAR EBLG 161720Z 24018KT 9999 -SHRA FEW018TCU BKN042 18/13 Q1015 TEMPO 4500 SHRA
18:50
V
19 °C 10 km+ - 240° 240° 15 kt METAR EBLG 161650Z 24015KT 9999 FEW020 19/14 Q1014 NOSIG
18:20
V
19 °C 10 km+ - 230° 230° 15 kt METAR EBLG 161620Z 23015KT 9999 FEW018 19/15 Q1014 NOSIG
17:50
V
19 °C 10 km+ - 230° 230° 14 kt METAR EBLG 161550Z 23014KT 9999 -SHRA FEW017 19/14 Q1014 NOSIG
17:20
V
19 °C 10 km+ - 230° 230° 19 kt METAR EBLG 161520Z 23019KT 9999 -SHRA FEW015 SCT032 19/15 Q1014 NOSIG
16:50
V
19 °C 10 km+ - 220° 220° 8 kt METAR EBLG 161450Z 22008KT 9999 -SHRA FEW014 SCT042 19/15 Q1013 NOSIG
16:20
V
18 °C 10 km+ - 220° 220° 12 kt METAR EBLG 161420Z 22012KT 9999 -SHRA SCT018 SCT040 18/14 Q1013 NOSIG
15:50
V
19 °C 10 km+ - 230° 230° 16 kt METAR EBLG 161350Z 23016KT 9999 SCT022 19/13 Q1013 NOSIG
15:20
V
19 °C 10 km+ - 200° 200° 11 kt METAR EBLG 161320Z 20011KT 9999 FEW014 19/15 Q1013 NOSIG
14:50
V
16 °C 10 km+ - 240° 240° 16 kt METAR EBLG 161250Z 24016KT 9999 -SHRA FEW012 FEW020CB 16/13 Q1013 NOSIG
14:20
V
17 °C 10 km+ - 220° 220° 16 kt METAR EBLG 161220Z 22016KT 9999 -SHRA FEW013 FEW020CB 17/14 Q1013 TEMPO 3000 TSRA
13:50
V
18 °C 10 km+ - 230° 230° 15 kt METAR EBLG 161150Z 23015KT 9999 -SHRA FEW012 SCT030 18/14 Q1012 NOSIG
13:20
V
19 °C 10 km+ - 230° 230° 16 kt METAR EBLG 161120Z 23016KT 9999 FEW023 19/13 Q1012 NOSIG
12:50
V
17 °C 10 km+ - 220° 220° 14 kt METAR EBLG 161050Z 22014KT 9999 -SHRA FEW012 SCT040 17/15 Q1012 NOSIG
12:20
V
20 °C 10 km+ - 210° 210° 15 kt METAR EBLG 161020Z 21015KT 9999 FEW026 20/14 Q1012 NOSIG
11:50
V
19 °C 10 km+ - 210° 210° 17 kt METAR EBLG 160950Z 21017KT 9999 FEW025 19/13 Q1012 NOSIG
11:20
V
19 °C 10 km+ - 220° 220° 15 kt METAR EBLG 160920Z 22015KT 9999 FEW024 19/12 Q1012 NOSIG
10:50
V
18 °C 10 km+ - 220° 220° 15 kt METAR EBLG 160850Z 22015KT 9999 FEW023 18/13 Q1012 NOSIG
10:20
V
18 °C 10 km+ - 210° 210° 13 kt METAR EBLG 160820Z 21013KT 170V240 9999 FEW022 SCT033 18/13 Q1012 NOSIG
09:50
V
18 °C 10 km+ - 210° 210° 16 kt METAR EBLG 160750Z 21016KT 9999 FEW022 SCT035 18/13 Q1012 NOSIG
09:20
V
17 °C 10 km+ - 220° 220° 15 kt METAR EBLG 160720Z 22015KT 9999 FEW019 SCT035 17/13 Q1012 NOSIG
08:50
V
17 °C 10 km+ 3.500 ft 210° 210° 16 kt METAR EBLG 160650Z 21016KT 170V230 9999 SCT018 BKN035 17/13 Q1012 NOSIG
08:20
V
17 °C 10 km+ - 210° 210° 12 kt METAR EBLG 160620Z 21012KT 9999 FEW016 17/13 Q1012 NOSIG
07:50
V
17 °C 10 km+ - 200° 200° 9 kt METAR EBLG 160550Z 20009KT 9999 FEW020 17/13 Q1012 NOSIG
报告变更